Physt, Washington
Current Conditions -  °F | °C
As of 7:19 AM on Wednesday 22 Oct 2014 (Local Time) from KCLM Reporting Station
Light Rain Light Rain  
Wind Chill: 54°   Ceiling: 1300
Heat Index: 54°   Visibility: 10mi
Dew Point: 53°   Wind: 0mph
Humidity: 97%   Direction: NA
Pressure: 29.64"   Gusts: NA
Location:  48.0203°N, 123.478°W
Report Text: KCLM 221419Z AUTO 00000KT 10SM -RA SCT002 BKN013 OVC026 12/12 A2964 RMK AO2 RAB10 P0000 T01220117 TSNO $
Loading
Personal Weather Stations






























Interactive Weather Map
Tropical Storm Tracking
New forecast layout! Learn more

10-Day Weather Forecast

Advertisements
Track Severe Weather on mobile